Time;durP1;ratioP1;P1;durP2;ratioP2;P2;SDS_P1;SDS_P2;PMS_P1;PMS_P2;Temp;Humidity;BMP_temperature;BMP_pressure;BME280_temperature;BME280_humidity;BME280_pressure;Samples;Min_cycle;Max_cycle;Signal;HPM_P1;HPM_P2
2023/10/04 00:00:23;;;;;;;6.00;3.30;;;;;12.70;101879.00;;;;5016605;28;20233;-72
2023/10/04 00:03:10;;;;;;;6.03;3.00;;;;;12.70;101880.00;;;;5020063;28;21050;-72
2023/10/04 00:05:57;;;;;;;4.53;3.10;;;;;12.70;101884.00;;;;5025348;28;20214;-71
2023/10/04 00:08:43;;;;;;;8.93;3.20;;;;;12.70;101893.00;;;;5022268;28;20213;-71
2023/10/04 00:11:30;;;;;;;5.73;2.80;;;;;12.70;101893.00;;;;5026024;28;20364;-71
2023/10/04 00:14:16;;;;;;;9.00;3.20;;;;;12.70;101891.00;;;;5022853;28;20718;-72
2023/10/04 00:17:02;;;;;;;6.30;2.63;;;;;12.70;101893.00;;;;5028036;28;20355;-71
2023/10/04 00:19:50;;;;;;;7.23;2.60;;;;;12.70;101892.00;;;;5025382;28;20230;-71
2023/10/04 00:22:39;;;;;;;5.90;2.83;;;;;12.70;101898.00;;;;5030228;28;20209;-71
2023/10/04 00:25:25;;;;;;;5.27;2.67;;;;;12.60;101901.00;;;;5029288;28;20287;-72
2023/10/04 00:28:12;;;;;;;3.53;2.40;;;;;12.60;101900.00;;;;5025010;28;20209;-71
2023/10/04 00:30:58;;;;;;;5.93;2.90;;;;;12.60;101901.00;;;;5026951;28;20233;-71
2023/10/04 00:33:44;;;;;;;4.37;2.70;;;;;12.60;101892.00;;;;5025983;28;20272;-71
2023/10/04 00:36:33;;;;;;;8.40;2.93;;;;;12.50;101902.00;;;;5024993;28;20238;-70
2023/10/04 00:39:19;;;;;;;7.17;2.80;;;;;12.50;101898.00;;;;5028919;28;20287;-72
2023/10/04 00:42:05;;;;;;;7.20;2.80;;;;;12.50;101896.00;;;;5025310;28;20198;-72
2023/10/04 00:44:52;;;;;;;5.47;2.90;;;;;12.50;101905.00;;;;5029451;28;20271;-71
2023/10/04 00:47:39;;;;;;;5.43;2.67;;;;;12.50;101905.00;;;;5018353;28;20341;-71
2023/10/04 00:50:31;;;;;;;6.53;2.67;;;;;12.40;101907.00;;;;5031697;28;20226;-71
2023/10/04 00:53:23;;;;;;;10.93;2.80;;;;;12.40;101903.00;;;;5029816;28;20209;-72
2023/10/04 00:56:09;;;;;;;5.40;2.40;;;;;12.40;101902.00;;;;5022452;28;20229;-72
2023/10/04 00:58:57;;;;;;;4.97;2.53;;;;;12.40;101902.00;;;;5025595;28;20818;-71
2023/10/04 01:01:44;;;;;;;6.30;3.10;;;;;12.30;101908.00;;;;5017447;28;20461;-71
2023/10/04 01:04:31;;;;;;;5.67;2.40;;;;;12.30;101913.00;;;;5027016;28;20209;-72
2023/10/04 01:07:18;;;;;;;5.20;2.57;;;;;12.30;101922.00;;;;5018817;28;20396;-71
2023/10/04 01:10:14;;;;;;;7.10;2.77;;;;;12.30;101917.00;;;;5023079;28;20742;-72
2023/10/04 01:13:01;;;;;;;4.80;2.70;;;;;12.30;101925.00;;;;5030233;28;20218;-72
2023/10/04 01:15:49;;;;;;;4.33;2.50;;;;;12.30;101910.00;;;;5023468;28;20237;-72
2023/10/04 01:18:35;;;;;;;6.13;2.47;;;;;12.30;101919.00;;;;5025817;28;20685;-71
2023/10/04 01:21:22;;;;;;;5.33;2.67;;;;;12.30;101914.00;;;;5029119;28;20305;-72
2023/10/04 01:24:10;;;;;;;6.27;2.57;;;;;12.40;101913.00;;;;5025641;28;20201;-69
2023/10/04 01:26:57;;;;;;;5.33;2.67;;;;;12.40;101920.00;;;;5022816;28;20217;-68
2023/10/04 01:29:43;;;;;;;6.33;2.93;;;;;12.40;101917.00;;;;5029127;28;20578;-70
2023/10/04 01:32:30;;;;;;;8.83;2.77;;;;;12.40;101923.00;;;;5022629;28;20210;-71
2023/10/04 01:35:18;;;;;;;6.50;2.80;;;;;12.40;101916.00;;;;5013304;28;20221;-69
2023/10/04 01:38:06;;;;;;;6.77;2.77;;;;;12.40;101908.00;;;;5020113;28;20213;-72
2023/10/04 01:40:55;;;;;;;11.77;2.63;;;;;12.40;101909.00;;;;5018022;28;20706;-70
2023/10/04 01:43:41;;;;;;;6.93;2.73;;;;;12.40;101916.00;;;;5028692;28;20276;-68
2023/10/04 01:46:28;;;;;;;5.57;2.80;;;;;12.40;101914.00;;;;5026996;28;20879;-71
2023/10/04 01:49:14;;;;;;;4.80;2.27;;;;;12.40;101919.00;;;;5029222;28;20221;-71
2023/10/04 01:52:05;;;;;;;5.00;2.60;;;;;12.30;101918.00;;;;5020505;28;20340;-71
2023/10/04 01:54:53;;;;;;;6.80;3.00;;;;;12.40;101910.00;;;;5028959;28;20201;-71
2023/10/04 01:57:43;;;;;;;10.70;3.00;;;;;12.40;101918.00;;;;5023936;28;20205;-72
2023/10/04 02:00:30;;;;;;;7.13;2.87;;;;;12.40;101912.00;;;;5017980;28;20230;-72
2023/10/04 02:03:16;;;;;;;8.93;2.90;;;;;12.50;101918.00;;;;5027734;28;20356;-72
2023/10/04 02:06:04;;;;;;;5.80;2.53;;;;;12.40;101925.00;;;;5018681;28;20345;-71
2023/10/04 02:08:51;;;;;;;4.90;2.37;;;;;12.50;101920.00;;;;5021370;28;20345;-72
2023/10/04 02:11:37;;;;;;;5.63;2.30;;;;;12.50;101922.00;;;;5026298;28;20226;-72
2023/10/04 02:14:25;;;;;;;7.00;2.67;;;;;12.40;101926.00;;;;5023545;28;20229;-72
2023/10/04 02:17:15;;;;;;;6.97;3.00;;;;;12.50;101918.00;;;;5023796;28;20245;-71
2023/10/04 02:20:09;;;;;;;7.13;2.47;;;;;12.50;101919.00;;;;5023351;28;20225;-70
2023/10/04 02:22:56;;;;;;;4.87;2.80;;;;;12.50;101921.00;;;;5021343;28;20336;-72
2023/10/04 02:25:42;;;;;;;10.27;2.77;;;;;12.50;101917.00;;;;5020563;28;20276;-72
2023/10/04 02:28:30;;;;;;;5.63;2.43;;;;;12.50;101929.00;;;;5021477;28;20225;-71
2023/10/04 02:31:19;;;;;;;5.57;2.50;;;;;12.50;101923.00;;;;5026674;28;20277;-67
2023/10/04 02:34:06;;;;;;;5.23;2.27;;;;;12.50;101926.00;;;;5028263;28;20213;-70
2023/10/04 02:36:55;;;;;;;4.47;2.37;;;;;12.50;101931.00;;;;5019650;28;20225;-72
2023/10/04 02:39:41;;;;;;;6.93;2.97;;;;;12.50;101925.00;;;;5023402;28;20209;-72
2023/10/04 02:42:30;;;;;;;7.97;2.50;;;;;12.60;101936.00;;;;5021144;28;20723;-71
2023/10/04 02:45:19;;;;;;;5.90;2.77;;;;;12.60;101927.00;;;;5026869;28;20295;-71
2023/10/04 02:48:09;;;;;;;9.07;3.07;;;;;12.60;101935.00;;;;5017800;28;20557;-72
2023/10/04 02:50:55;;;;;;;5.43;2.60;;;;;12.60;101934.00;;;;5025126;28;20229;-71
2023/10/04 02:53:42;;;;;;;7.70;2.73;;;;;12.70;101934.00;;;;5018039;28;20209;-72
2023/10/04 02:56:28;;;;;;;5.77;2.70;;;;;12.70;101935.00;;;;5021124;28;21072;-70
2023/10/04 02:59:17;;;;;;;10.00;3.27;;;;;12.70;101928.00;;;;5022170;28;20347;-71
2023/10/04 03:02:04;;;;;;;7.40;2.77;;;;;12.80;101922.00;;;;5024176;28;20694;-70
2023/10/04 03:04:52;;;;;;;7.17;3.10;;;;;12.80;101926.00;;;;5026372;28;20698;-70
2023/10/04 03:07:41;;;;;;;8.67;2.90;;;;;12.90;101924.00;;;;5026423;28;20218;-72
2023/10/04 03:10:32;;;;;;;9.33;2.87;;;;;12.80;101927.00;;;;5024000;28;20713;-70
2023/10/04 03:13:24;;;;;;;5.97;2.73;;;;;12.80;101933.00;;;;5026367;28;20225;-72
2023/10/04 03:16:10;;;;;;;6.50;3.07;;;;;12.80;101932.00;;;;5026122;28;20237;-70
2023/10/04 03:18:57;;;;;;;8.37;2.87;;;;;12.90;101940.00;;;;5021886;28;20213;-70
2023/10/04 03:21:46;;;;;;;8.67;2.50;;;;;12.80;101936.00;;;;5023386;28;20232;-70
2023/10/04 03:24:33;;;;;;;7.77;3.10;;;;;12.80;101939.00;;;;5022781;28;20214;-71
2023/10/04 03:27:21;;;;;;;4.77;2.40;;;;;12.70;101938.00;;;;5024370;28;20618;-68
2023/10/04 03:30:14;;;;;;;10.47;2.90;;;;;12.70;101940.00;;;;5026573;28;20718;-71
2023/10/04 03:33:00;;;;;;;4.70;2.50;;;;;12.70;101936.00;;;;5024545;28;20221;-71
2023/10/04 03:35:47;;;;;;;8.50;3.10;;;;;12.70;101935.00;;;;5022242;28;20221;-71
2023/10/04 03:38:35;;;;;;;7.77;2.77;;;;;12.70;101946.00;;;;5018589;28;20225;-71
2023/10/04 03:41:22;;;;;;;6.53;2.67;;;;;12.70;101942.00;;;;5019101;28;20306;-71
2023/10/04 03:44:09;;;;;;;7.60;2.70;;;;;12.80;101944.00;;;;5021629;28;20741;-72
2023/10/04 03:46:55;;;;;;;5.67;2.47;;;;;12.70;101951.00;;;;5020067;28;20217;-69
2023/10/04 03:49:43;;;;;;;6.13;2.60;;;;;12.70;101944.00;;;;5029038;28;20216;-70
2023/10/04 03:52:31;;;;;;;7.23;2.40;;;;;12.70;101942.00;;;;5030625;28;20223;-69
2023/10/04 03:55:19;;;;;;;10.23;2.80;;;;;12.70;101949.00;;;;5021189;28;20301;-72
2023/10/04 03:58:07;;;;;;;6.30;2.77;;;;;12.70;101951.00;;;;5030342;28;20282;-72
2023/10/04 04:00:53;;;;;;;7.37;2.70;;;;;12.70;101952.00;;;;5026565;28;20228;-71
2023/10/04 04:03:40;;;;;;;6.40;2.73;;;;;12.70;101952.00;;;;5021881;28;20263;-71
2023/10/04 04:06:26;;;;;;;9.03;2.80;;;;;12.70;101949.00;;;;5026225;28;20293;-71
2023/10/04 04:09:13;;;;;;;5.13;2.70;;;;;12.70;101963.00;;;;5024171;28;20209;-72
2023/10/04 04:12:01;;;;;;;7.47;2.70;;;;;12.70;101955.00;;;;5029547;28;20385;-70
2023/10/04 04:14:48;;;;;;;8.70;2.93;;;;;12.70;101963.00;;;;5021626;28;20205;-72
2023/10/04 04:17:35;;;;;;;5.13;2.73;;;;;12.60;101963.00;;;;5030657;28;20299;-72
2023/10/04 04:20:23;;;;;;;6.23;2.60;;;;;12.60;101959.00;;;;5031637;28;20765;-71
2023/10/04 04:23:10;;;;;;;3.60;2.40;;;;;12.60;101966.00;;;;5030335;28;20209;-68
2023/10/04 04:25:59;;;;;;;8.63;2.80;;;;;12.60;101960.00;;;;5023070;28;20352;-71
2023/10/04 04:28:47;;;;;;;6.03;2.80;;;;;12.60;101961.00;;;;5029531;28;20694;-72
2023/10/04 04:31:34;;;;;;;5.47;2.63;;;;;12.70;101958.00;;;;5028318;28;20574;-69
2023/10/04 04:34:25;;;;;;;7.90;2.67;;;;;12.70;101955.00;;;;5020625;28;20213;-71
2023/10/04 04:37:14;;;;;;;6.97;2.90;;;;;12.70;101951.00;;;;5022406;28;20585;-71
2023/10/04 04:40:00;;;;;;;6.90;2.43;;;;;12.60;101947.00;;;;5019794;28;20717;-71
2023/10/04 04:42:47;;;;;;;9.40;2.70;;;;;12.50;101965.00;;;;5028737;28;21048;-71
2023/10/04 04:45:35;;;;;;;12.23;3.20;;;;;12.40;101974.00;;;;5025841;28;20210;-71
2023/10/04 04:48:23;;;;;;;7.10;2.77;;;;;12.40;101959.00;;;;5022806;28;20321;-71
2023/10/04 04:51:12;;;;;;;9.47;3.10;;;;;12.50;101964.00;;;;5028932;28;20283;-72
2023/10/04 04:53:59;;;;;;;7.97;3.10;;;;;12.50;101957.00;;;;5026544;28;20276;-70
2023/10/04 04:56:45;;;;;;;7.50;2.90;;;;;12.40;101959.00;;;;5023492;28;20225;-71
2023/10/04 04:59:33;;;;;;;6.90;3.00;;;;;12.40;101962.00;;;;5026997;28;20846;-70
2023/10/04 05:02:21;;;;;;;7.03;2.80;;;;;12.40;101949.00;;;;5020579;28;20336;-70
2023/10/04 05:05:11;;;;;;;6.80;2.63;;;;;12.30;101947.00;;;;5022906;28;20701;-71
2023/10/04 05:07:58;;;;;;;9.50;2.90;;;;;12.20;101952.00;;;;5024000;28;20205;-70
2023/10/04 05:10:46;;;;;;;6.87;2.97;;;;;12.10;101954.00;;;;5027288;28;20232;-70
2023/10/04 05:13:32;;;;;;;6.10;2.50;;;;;12.10;101961.00;;;;5019423;28;20600;-72
2023/10/04 05:16:18;;;;;;;6.43;3.00;;;;;12.10;101958.00;;;;5017452;28;20872;-72
2023/10/04 05:19:08;;;;;;;6.43;2.47;;;;;12.00;101960.00;;;;5023360;28;20225;-71
2023/10/04 05:21:55;;;;;;;9.70;3.00;;;;;12.00;101964.00;;;;5016956;28;20276;-72
2023/10/04 05:24:41;;;;;;;6.50;2.90;;;;;12.00;101958.00;;;;5026697;28;20236;-72
2023/10/04 05:27:28;;;;;;;5.23;2.87;;;;;12.00;101959.00;;;;5029641;28;20233;-72
2023/10/04 05:30:16;;;;;;;8.20;2.90;;;;;12.00;101956.00;;;;5021587;28;20248;-71
2023/10/04 05:33:03;;;;;;;7.73;2.90;;;;;11.90;101950.00;;;;5014807;28;20214;-70
2023/10/04 05:35:53;;;;;;;6.47;2.70;;;;;11.90;101948.00;;;;5025897;28;20308;-72
2023/10/04 05:38:40;;;;;;;6.93;2.87;;;;;11.90;101950.00;;;;5020028;28;20639;-72
2023/10/04 05:41:31;;;;;;;6.77;3.03;;;;;11.90;101964.00;;;;5018721;28;20948;-70
2023/10/04 05:44:17;;;;;;;10.40;3.10;;;;;11.90;101960.00;;;;5013174;28;20210;-71
2023/10/04 05:47:05;;;;;;;7.63;3.13;;;;;11.80;101951.00;;;;5016785;28;20221;-71
2023/10/04 05:49:51;;;;;;;4.40;2.90;;;;;11.90;101973.00;;;;5014708;28;21028;-71
2023/10/04 05:52:39;;;;;;;3.93;2.83;;;;;11.90;101969.00;;;;5022437;28;20221;-71
2023/10/04 05:55:26;;;;;;;8.47;2.77;;;;;11.90;101972.00;;;;5022852;28;20201;-71
2023/10/04 05:58:13;;;;;;;14.20;3.47;;;;;11.90;101974.00;;;;5018528;28;20596;-70
2023/10/04 06:00:59;;;;;;;9.80;2.90;;;;;12.00;101984.00;;;;5018138;28;20856;-71
2023/10/04 06:03:46;;;;;;;4.90;2.70;;;;;12.00;101990.00;;;;5022643;28;21005;-71
2023/10/04 06:06:33;;;;;;;5.67;3.17;;;;;12.00;102000.00;;;;5023237;28;20358;-72
2023/10/04 06:09:28;;;;;;;6.20;3.13;;;;;12.00;102006.00;;;;5015181;28;20214;-69
2023/10/04 06:12:15;;;;;;;12.23;3.30;;;;;12.10;102008.00;;;;5011526;28;20213;-71
2023/10/04 06:15:01;;;;;;;7.50;3.20;;;;;12.10;101999.00;;;;5016743;28;20319;-71
2023/10/04 06:17:48;;;;;;;6.23;3.07;;;;;12.10;102004.00;;;;5015915;28;20308;-71
2023/10/04 06:20:36;;;;;;;10.60;4.77;;;;;12.20;102026.00;;;;5017384;28;20285;-71
2023/10/04 06:23:22;;;;;;;6.20;3.10;;;;;12.10;102033.00;;;;5020233;28;20909;-71
2023/10/04 06:26:12;;;;;;;6.60;2.97;;;;;12.20;102031.00;;;;5017941;28;20209;-71
2023/10/04 06:28:59;;;;;;;7.90;3.17;;;;;12.20;102021.00;;;;5015427;28;20214;-71
2023/10/04 06:31:46;;;;;;;7.00;2.67;;;;;12.30;102032.00;;;;5023976;28;20268;-70
2023/10/04 06:34:33;;;;;;;12.80;3.83;;;;;12.40;102036.00;;;;5016200;28;20269;-71
2023/10/04 06:37:19;;;;;;;9.10;3.70;;;;;12.40;102039.00;;;;5025656;28;20213;-71
2023/10/04 06:40:14;;;;;;;16.97;3.80;;;;;12.40;102050.00;;;;5017230;28;20896;-71
2023/10/04 06:43:04;;;;;;;9.10;3.83;;;;;12.50;102046.00;;;;5020280;28;20214;-71
2023/10/04 06:45:50;;;;;;;9.97;3.73;;;;;12.70;102053.00;;;;5020226;28;20762;-71
2023/10/04 06:48:38;;;;;;;10.83;4.20;;;;;12.70;102060.00;;;;5021102;28;20233;-71
2023/10/04 06:51:27;;;;;;;11.70;4.03;;;;;12.80;102071.00;;;;5024075;28;20233;-71
2023/10/04 06:54:14;;;;;;;8.63;3.50;;;;;12.90;102064.00;;;;5024569;28;20299;-72
2023/10/04 06:57:00;;;;;;;10.13;3.50;;;;;12.90;102068.00;;;;5021445;28;20217;-71
2023/10/04 06:59:49;;;;;;;10.40;3.90;;;;;13.00;102064.00;;;;5022894;28;20261;-71
2023/10/04 07:02:35;;;;;;;14.37;4.57;;;;;13.00;102073.00;;;;5023259;28;20214;-73
2023/10/04 07:05:23;;;;;;;10.57;3.20;;;;;13.00;102059.00;;;;5023469;28;20209;-73
2023/10/04 07:08:12;;;;;;;12.40;3.27;;;;;13.10;102055.00;;;;5020821;28;20218;-75
2023/10/04 07:11:03;;;;;;;8.67;3.63;;;;;13.20;102075.00;;;;5023468;28;20233;-73
2023/10/04 07:13:49;;;;;;;9.63;3.37;;;;;13.20;102070.00;;;;5026878;28;20213;-73
2023/10/04 07:16:36;;;;;;;10.13;4.03;;;;;13.20;102069.00;;;;5021826;28;20219;-70
2023/10/04 07:19:22;;;;;;;9.17;3.50;;;;;13.30;102080.00;;;;5025179;28;20257;-72
2023/10/04 07:22:09;;;;;;;9.57;4.00;;;;;13.30;102088.00;;;;5019705;28;20594;-73
2023/10/04 07:24:55;;;;;;;9.47;3.60;;;;;13.40;102092.00;;;;5023263;28;20303;-73
2023/10/04 07:27:43;;;;;;;13.40;4.03;;;;;13.40;102093.00;;;;5022608;28;20221;-74
2023/10/04 07:30:31;;;;;;;8.87;3.70;;;;;13.40;102085.00;;;;5023085;28;20603;-72
2023/10/04 07:33:19;;;;;;;9.47;3.63;;;;;13.50;102101.00;;;;5024989;28;20701;-74
2023/10/04 07:36:05;;;;;;;8.47;3.87;;;;;13.60;102099.00;;;;5021399;28;20218;-69
2023/10/04 07:38:52;;;;;;;9.83;3.97;;;;;13.70;102099.00;;;;5027094;28;20237;-72
2023/10/04 07:41:38;;;;;;;11.23;3.77;;;;;13.70;102094.00;;;;5024634;28;20371;-70
2023/10/04 07:44:26;;;;;;;10.17;3.47;;;;;13.80;102101.00;;;;5025063;28;20209;-71
2023/10/04 07:47:12;;;;;;;18.57;3.97;;;;;13.80;102095.00;;;;5018096;28;20213;-71
2023/10/04 07:50:00;;;;;;;14.77;4.07;;;;;13.80;102092.00;;;;5020520;28;20288;-70
2023/10/04 07:52:46;;;;;;;13.60;4.03;;;;;14.00;102095.00;;;;5025840;28;20618;-69
2023/10/04 07:55:33;;;;;;;7.53;3.67;;;;;14.00;102096.00;;;;5021080;28;20214;-72
2023/10/04 07:58:19;;;;;;;11.33;3.63;;;;;14.00;102088.00;;;;5019844;28;20225;-70
2023/10/04 08:01:06;;;;;;;7.77;3.33;;;;;14.10;102093.00;;;;5022290;28;20244;-72
2023/10/04 08:03:52;;;;;;;9.70;3.70;;;;;14.10;102097.00;;;;5015252;28;20281;-70
2023/10/04 08:06:40;;;;;;;10.83;3.67;;;;;14.20;102103.00;;;;5024523;28;20260;-68
2023/10/04 08:09:27;;;;;;;11.87;3.10;;;;;14.20;102113.00;;;;5022647;28;20593;-71
2023/10/04 08:12:13;;;;;;;9.53;3.70;;;;;14.30;102119.00;;;;5021365;28;20203;-71
2023/10/04 08:15:01;;;;;;;13.20;3.20;;;;;14.30;102114.00;;;;5023203;28;20213;-72
2023/10/04 08:17:48;;;;;;;7.53;4.17;;;;;14.40;102111.00;;;;5024421;28;20256;-70
2023/10/04 08:20:36;;;;;;;11.63;3.10;;;;;14.40;102107.00;;;;5018867;28;20249;-71
2023/10/04 08:23:25;;;;;;;8.53;3.10;;;;;14.50;102101.00;;;;5026434;28;20212;-71
2023/10/04 08:26:16;;;;;;;12.97;3.10;;;;;14.50;102102.00;;;;5020521;28;20215;-71
2023/10/04 08:29:04;;;;;;;8.37;3.47;;;;;14.60;102108.00;;;;5021899;28;20217;-68
2023/10/04 08:31:52;;;;;;;10.20;3.40;;;;;14.70;102110.00;;;;5025194;28;20258;-70
2023/10/04 08:34:38;;;;;;;11.33;3.10;;;;;14.80;102101.00;;;;5020502;28;20204;-71
2023/10/04 08:37:24;;;;;;;9.07;3.50;;;;;14.90;102108.00;;;;5016509;28;20217;-71
2023/10/04 08:40:12;;;;;;;12.33;3.37;;;;;14.90;102099.00;;;;5020177;28;20234;-70
2023/10/04 08:42:59;;;;;;;12.17;3.87;;;;;15.00;102098.00;;;;5022342;28;20216;-70
2023/10/04 08:45:46;;;;;;;10.40;3.30;;;;;15.10;102117.00;;;;5022503;28;20223;-71
2023/10/04 08:48:33;;;;;;;9.73;3.53;;;;;15.30;102114.00;;;;5017701;28;20689;-68
2023/10/04 08:51:37;;;;;;;6.47;3.20;;;;;15.30;102116.00;;;;5019581;28;20726;-71
2023/10/04 08:54:25;;;;;;;11.67;3.00;;;;;15.40;102115.00;;;;5024322;28;20210;-71
2023/10/04 08:57:20;;;;;;;7.60;3.10;;;;;15.50;102115.00;;;;5023514;28;20307;-70
2023/10/04 09:00:13;;;;;;;12.07;3.13;;;;;15.50;102110.00;;;;5020030;28;20871;-71
2023/10/04 09:03:16;;;;;;;7.60;3.17;;;;;15.70;102110.00;;;;5022828;28;20757;-71
2023/10/04 09:06:05;;;;;;;9.30;2.90;;;;;15.80;102108.00;;;;5020478;28;20336;-68
2023/10/04 09:08:51;;;;;;;7.77;2.43;;;;;15.90;102114.00;;;;5026635;28;20559;-71
2023/10/04 09:11:37;;;;;;;7.20;2.97;;;;;16.10;102111.00;;;;5033651;28;20240;-68
2023/10/04 09:14:25;;;;;;;12.90;3.07;;;;;16.10;102107.00;;;;5019322;28;20237;-71
2023/10/04 09:17:14;;;;;;;7.47;3.17;;;;;16.10;102110.00;;;;5020062;28;20210;-70
2023/10/04 09:20:13;;;;;;;11.30;3.57;;;;;16.30;102114.00;;;;5031489;28;20286;-69
2023/10/04 09:23:00;;;;;;;12.03;2.57;;;;;16.40;102115.00;;;;5020183;28;20746;-70
2023/10/04 09:25:46;;;;;;;11.50;3.00;;;;;16.40;102118.00;;;;5028439;28;20221;-71
2023/10/04 09:28:40;;;;;;;7.53;2.60;;;;;16.50;102128.00;;;;5027962;28;20219;-71
2023/10/04 09:31:29;;;;;;;9.97;2.80;;;;;16.60;102115.00;;;;5022717;28;20350;-71
2023/10/04 09:34:16;;;;;;;8.57;2.57;;;;;16.60;102125.00;;;;5027048;28;20217;-70
2023/10/04 09:37:04;;;;;;;11.93;2.77;;;;;16.70;102122.00;;;;5030709;28;20623;-70
2023/10/04 09:39:50;;;;;;;13.33;2.70;;;;;16.70;102111.00;;;;5025087;28;20801;-69
2023/10/04 09:42:47;;;;;;;7.33;2.80;;;;;16.70;102116.00;;;;5022909;28;20344;-68
2023/10/04 09:45:33;;;;;;;9.97;2.70;;;;;16.80;102128.00;;;;5024117;28;20341;-70
2023/10/04 09:48:21;;;;;;;7.17;2.90;;;;;16.70;102110.00;;;;5030336;28;20209;-69
2023/10/04 09:51:09;;;;;;;11.73;2.90;;;;;16.70;102125.00;;;;5021063;28;20233;-67
2023/10/04 09:53:55;;;;;;;13.70;2.80;;;;;16.80;102119.00;;;;5026598;28;20257;-70
2023/10/04 09:56:43;;;;;;;10.77;2.73;;;;;16.80;102122.00;;;;5020471;28;20214;-69
2023/10/04 09:59:31;;;;;;;6.20;2.80;;;;;16.80;102108.00;;;;5023076;28;20230;-69
2023/10/04 10:02:21;;;;;;;10.67;2.43;;;;;16.90;102116.00;;;;5017209;28;20361;-70
2023/10/04 10:05:11;;;;;;;14.33;2.97;;;;;17.00;102129.00;;;;5022507;28;20230;-71
2023/10/04 10:08:04;;;;;;;9.40;2.93;;;;;17.10;102129.00;;;;5013226;28;20225;-71
2023/10/04 10:10:51;;;;;;;10.00;2.80;;;;;17.10;102127.00;;;;5022897;28;20380;-71
2023/10/04 10:13:37;;;;;;;10.20;2.83;;;;;17.00;102120.00;;;;5024075;28;20341;-70
2023/10/04 10:16:26;;;;;;;9.20;2.90;;;;;17.00;102120.00;;;;5024290;28;20216;-70
2023/10/04 10:19:13;;;;;;;9.50;2.57;;;;;17.00;102122.00;;;;5020856;28;20738;-70
2023/10/04 10:22:08;;;;;;;7.90;2.40;;;;;17.10;102117.00;;;;5024563;28;20273;-69
2023/10/04 10:25:13;;;;;;;7.50;2.70;;;;;17.20;102121.00;;;;5021196;28;20639;-71
2023/10/04 10:28:02;;;;;;;9.40;2.70;;;;;17.40;102109.00;;;;5022700;28;20213;-71
2023/10/04 10:30:48;;;;;;;10.57;2.60;;;;;17.50;102110.00;;;;5023253;28;20496;-71
2023/10/04 10:33:35;;;;;;;8.63;2.83;;;;;17.50;102112.00;;;;5023934;28;20702;-71
2023/10/04 10:36:22;;;;;;;13.40;2.70;;;;;17.60;102108.00;;;;5021185;28;20218;-71
2023/10/04 10:39:24;;;;;;;7.03;2.80;;;;;17.60;102113.00;;;;5015368;28;20839;-72
2023/10/04 10:42:11;;;;;;;10.53;2.53;;;;;17.70;102104.00;;;;5019019;28;20212;-70
2023/10/04 10:45:30;;;;;;;10.87;2.80;;;;;17.90;102109.00;;;;5022092;28;20264;-72
2023/10/04 10:48:16;;;;;;;8.37;2.67;;;;;17.80;102108.00;;;;5018012;28;20321;-72
2023/10/04 10:51:03;;;;;;;6.23;2.40;;;;;17.90;102112.00;;;;5013614;28;20233;-73
2023/10/04 10:53:50;;;;;;;7.77;2.40;;;;;17.90;102107.00;;;;5012907;28;20261;-73
2023/10/04 10:56:37;;;;;;;9.43;2.50;;;;;17.80;102105.00;;;;5026841;28;20757;-72
2023/10/04 10:59:24;;;;;;;8.10;2.57;;;;;17.80;102111.00;;;;5019496;28;20209;-72
2023/10/04 11:02:10;;;;;;;8.60;2.47;;;;;17.90;102110.00;;;;5015831;28;20694;-72
2023/10/04 11:04:56;;;;;;;7.33;2.60;;;;;17.90;102112.00;;;;5018013;28;20221;-70
2023/10/04 11:07:43;;;;;;;7.90;2.43;;;;;18.00;102109.00;;;;5020877;28;20209;-72
2023/10/04 11:10:33;;;;;;;8.97;2.40;;;;;17.90;102114.00;;;;5017672;28;20693;-72
2023/10/04 11:13:23;;;;;;;8.47;2.63;;;;;18.00;102116.00;;;;5019446;28;20333;-71
2023/10/04 11:16:09;;;;;;;8.43;2.23;;;;;17.90;102109.00;;;;5019431;28;20313;-70
2023/10/04 11:18:57;;;;;;;10.00;3.00;;;;;18.00;102105.00;;;;5027642;28;20214;-73
2023/10/04 11:21:46;;;;;;;10.07;2.83;;;;;18.00;102107.00;;;;5021027;28;20746;-73
2023/10/04 11:24:32;;;;;;;6.97;2.73;;;;;18.10;102105.00;;;;5026714;28;20742;-73
2023/10/04 11:27:22;;;;;;;9.67;2.70;;;;;18.30;102108.00;;;;5023150;28;20263;-73
2023/10/04 11:30:11;;;;;;;7.13;2.40;;;;;18.40;102104.00;;;;5016957;28;20575;-73
2023/10/04 11:32:58;;;;;;;6.47;2.67;;;;;18.60;102103.00;;;;5020918;28;20221;-72
2023/10/04 11:35:45;;;;;;;9.27;2.60;;;;;18.60;102106.00;;;;5019679;28;20287;-70
2023/10/04 11:38:32;;;;;;;7.33;2.30;;;;;18.60;102086.00;;;;5022868;28;20221;-74
2023/10/04 11:41:19;;;;;;;7.87;2.37;;;;;18.70;102079.00;;;;5022974;28;20291;-70
2023/10/04 11:44:07;;;;;;;6.27;2.30;;;;;18.90;102090.00;;;;5022404;28;20965;-70
2023/10/04 11:47:00;;;;;;;7.37;2.10;;;;;19.00;102088.00;;;;5022440;28;20333;-71
2023/10/04 11:49:56;;;;;;;9.93;2.67;;;;;19.10;102067.00;;;;5018570;28;20699;-70
2023/10/04 11:52:42;;;;;;;7.20;2.37;;;;;19.00;102077.00;;;;5018016;28;20214;-68
2023/10/04 11:55:29;;;;;;;8.57;2.70;;;;;19.10;102070.00;;;;5025466;28;20210;-71
2023/10/04 11:58:15;;;;;;;8.60;2.40;;;;;19.00;102071.00;;;;5021060;28;20214;-69
2023/10/04 12:01:06;;;;;;;8.10;2.60;;;;;19.00;102066.00;;;;5025925;28;20261;-71
2023/10/04 12:03:55;;;;;;;7.33;2.37;;;;;19.10;102076.00;;;;5016138;28;20214;-70
2023/10/04 12:06:42;;;;;;;7.40;2.77;;;;;19.20;102073.00;;;;5023432;28;20710;-71
2023/10/04 12:09:30;;;;;;;5.87;2.10;;;;;19.10;102064.00;;;;5022774;28;20217;-73
2023/10/04 12:12:17;;;;;;;4.90;2.40;;;;;18.90;102066.00;;;;5019080;28;20221;-72
2023/10/04 12:15:07;;;;;;;6.80;2.10;;;;;19.00;102063.00;;;;5029173;28;20566;-73
2023/10/04 12:17:54;;;;;;;5.97;2.30;;;;;19.10;102061.00;;;;5030547;28;20367;-72
2023/10/04 12:20:42;;;;;;;7.03;2.53;;;;;19.10;102048.00;;;;5027141;28;20311;-72
2023/10/04 12:23:32;;;;;;;7.50;2.30;;;;;19.30;102057.00;;;;5030299;28;20698;-71
2023/10/04 12:26:20;;;;;;;7.23;1.90;;;;;19.40;102055.00;;;;5026345;28;20214;-71
2023/10/04 12:29:07;;;;;;;5.53;2.30;;;;;19.40;102058.00;;;;5025558;28;20255;-71
2023/10/04 12:31:53;;;;;;;5.30;2.37;;;;;19.50;102065.00;;;;5022388;28;20285;-71
2023/10/04 12:34:40;;;;;;;11.00;2.67;;;;;19.50;102059.00;;;;5023890;28;20695;-72
2023/10/04 12:37:28;;;;;;;9.20;2.57;;;;;19.40;102054.00;;;;5029609;28;20267;-72
2023/10/04 12:40:23;;;;;;;7.70;2.40;;;;;19.40;102060.00;;;;5023454;28;20833;-72
2023/10/04 12:43:09;;;;;;;7.13;2.40;;;;;19.30;102050.00;;;;5018754;28;20202;-71
2023/10/04 12:45:55;;;;;;;7.47;2.50;;;;;19.20;102058.00;;;;5027293;28;20206;-71
2023/10/04 12:48:41;;;;;;;11.47;2.40;;;;;19.20;102044.00;;;;5029248;28;20222;-71
2023/10/04 12:51:29;;;;;;;8.07;2.67;;;;;19.30;102043.00;;;;5029923;28;20374;-72
2023/10/04 12:54:19;;;;;;;5.57;2.30;;;;;19.30;102051.00;;;;5023682;28;20702;-72
2023/10/04 12:57:06;;;;;;;8.17;2.73;;;;;19.20;102054.00;;;;5023439;28;20260;-71
2023/10/04 12:59:53;;;;;;;9.50;2.77;;;;;19.10;102057.00;;;;5023700;28;20239;-67
2023/10/04 13:02:40;;;;;;;5.70;2.50;;;;;19.10;102049.00;;;;5029913;28;20313;-70
2023/10/04 13:05:27;;;;;;;8.13;2.70;;;;;19.10;102059.00;;;;5029141;28;20245;-67
2023/10/04 13:08:16;;;;;;;8.67;2.40;;;;;19.10;102060.00;;;;5022382;28;20219;-71
2023/10/04 13:11:06;;;;;;;5.37;2.40;;;;;19.20;102049.00;;;;5028706;28;20271;-71
2023/10/04 13:13:53;;;;;;;9.73;2.80;;;;;19.20;102048.00;;;;5027004;28;20223;-70
2023/10/04 13:16:39;;;;;;;8.63;3.10;;;;;19.20;102041.00;;;;5025643;28;20321;-71
2023/10/04 13:19:25;;;;;;;5.10;2.50;;;;;19.20;102041.00;;;;5024824;28;20220;-71
2023/10/04 13:22:12;;;;;;;8.87;2.83;;;;;19.20;102049.00;;;;5022209;28;20362;-71
2023/10/04 13:24:58;;;;;;;7.87;2.97;;;;;19.20;102061.00;;;;5023234;28;20214;-73
2023/10/04 13:27:46;;;;;;;8.23;2.70;;;;;19.10;102058.00;;;;5026194;28;20293;-71
2023/10/04 13:30:33;;;;;;;5.53;2.73;;;;;19.20;102061.00;;;;5029617;28;20238;-71
2023/10/04 13:33:19;;;;;;;7.07;2.97;;;;;19.10;102053.00;;;;5023062;28;20237;-72
2023/10/04 13:36:06;;;;;;;9.47;3.63;;;;;19.10;102054.00;;;;5026527;28;20252;-71
2023/10/04 13:38:52;;;;;;;11.23;3.27;;;;;19.10;102059.00;;;;5023216;28;20223;-71
2023/10/04 13:41:39;;;;;;;10.10;3.53;;;;;19.00;102060.00;;;;5028699;28;20235;-71
2023/10/04 13:44:27;;;;;;;8.37;2.67;;;;;19.10;102049.00;;;;5025463;28;20213;-72
2023/10/04 13:47:15;;;;;;;7.13;2.70;;;;;19.00;102054.00;;;;5026847;28;20221;-70